createdAt,value
2022-08-10T00:02:13.954Z,25.03
2022-08-10T00:04:41.317Z,25.22
2022-08-10T00:07:08.602Z,25.14
2022-08-10T00:09:51.171Z,25.02
2022-08-10T00:12:19.830Z,25.11
2022-08-10T00:14:47.593Z,25.33
2022-08-10T00:17:15.024Z,25.21
2022-08-10T00:20:03.609Z,25.08
2022-08-10T00:22:29.655Z,25.17
2022-08-10T00:24:58.074Z,25.31
2022-08-10T00:27:58.656Z,25.12
2022-08-10T00:30:13.910Z,25.23
2022-08-10T00:32:41.244Z,25.30
2022-08-10T00:35:08.970Z,25.19
2022-08-10T00:37:36.258Z,25.08
2022-08-10T00:40:05.309Z,25.06
2022-08-10T00:42:32.924Z,25.08
2022-08-10T00:45:00.318Z,24.98
2022-08-10T00:47:37.450Z,25.03
2022-08-10T00:50:09.578Z,24.83
2022-08-10T00:52:40.937Z,24.82
2022-08-10T00:55:08.658Z,25.00
2022-08-10T00:57:36.424Z,25.13
2022-08-10T01:00:06.111Z,25.10
2022-08-10T01:02:34.354Z,25.14
2022-08-10T01:05:06.650Z,25.19
2022-08-10T01:07:51.433Z,24.96
2022-08-10T01:10:56.254Z,25.17
2022-08-10T01:13:41.652Z,24.91
2022-08-10T01:16:29.681Z,24.58
2022-08-10T01:19:11.936Z,24.61
2022-08-10T01:21:58.602Z,24.77
2022-08-10T01:24:40.511Z,24.69
2022-08-10T01:27:26.923Z,24.68
2022-08-10T01:29:57.495Z,24.66
2022-08-10T01:32:41.455Z,24.79
2022-08-10T01:35:34.146Z,24.74
2022-08-10T01:38:07.345Z,24.85
2022-08-10T01:40:39.176Z,24.77
2022-08-10T01:43:10.139Z,24.72
2022-08-10T01:45:46.347Z,24.73
2022-08-10T01:48:29.799Z,24.76
2022-08-10T01:51:15.583Z,24.79
2022-08-10T01:53:52.135Z,24.81
2022-08-10T01:56:23.279Z,24.95
2022-08-10T01:58:56.876Z,24.92
2022-08-10T02:01:29.048Z,25.36
2022-08-10T02:04:03.830Z,25.47
2022-08-10T02:06:37.701Z,25.31
2022-08-10T02:09:07.833Z,25.68
2022-08-10T02:12:06.036Z,25.44
2022-08-10T02:14:34.070Z,25.35
2022-08-10T02:17:57.965Z,25.04
2022-08-10T02:20:02.673Z,24.99
2022-08-10T02:22:35.616Z,25.00
2022-08-10T02:25:41.067Z,24.93
2022-08-10T02:28:07.794Z,25.06
2022-08-10T02:30:37.671Z,25.03
2022-08-10T02:33:06.236Z,25.38
2022-08-10T02:35:55.454Z,25.10
2022-08-10T02:38:58.712Z,25.21
2022-08-10T02:45:13.002Z,24.92
2022-08-10T02:45:22.065Z,25.38
2022-08-10T02:47:51.479Z,25.49
2022-08-10T02:50:32.811Z,25.03
2022-08-10T02:53:06.202Z,24.78
2022-08-10T02:55:47.262Z,24.61
2022-08-10T02:58:21.032Z,24.62
2022-08-10T03:00:52.612Z,24.76
2022-08-10T03:03:31.385Z,24.96
2022-08-10T03:06:08.589Z,25.00
2022-08-10T03:08:41.580Z,24.97
2022-08-10T03:11:14.288Z,25.01
2022-08-10T03:13:43.679Z,25.08
2022-08-10T03:16:12.399Z,25.21
2022-08-10T03:18:40.222Z,25.08
2022-08-10T03:21:11.796Z,25.34
2022-08-10T03:23:42.000Z,25.24
2022-08-10T03:26:10.298Z,25.09
2022-08-10T03:28:38.238Z,24.92
2022-08-10T03:31:05.832Z,24.89
2022-08-10T03:33:35.945Z,25.09
2022-08-10T03:36:44.039Z,25.05
2022-08-10T03:38:54.557Z,25.53
2022-08-10T03:41:53.348Z,25.44
2022-08-10T03:44:31.612Z,25.27
2022-08-10T03:47:03.159Z,25.31
2022-08-10T03:49:43.830Z,25.11
2022-08-10T03:52:11.468Z,24.91
2022-08-10T03:54:39.125Z,24.92
2022-08-10T03:57:06.819Z,24.92
2022-08-10T03:59:36.295Z,24.97
2022-08-10T04:02:44.422Z,24.95
2022-08-10T04:04:53.875Z,24.96
2022-08-10T04:07:21.802Z,25.01
2022-08-10T04:09:55.006Z,25.05
2022-08-10T04:12:24.936Z,25.07
2022-08-10T04:14:53.560Z,25.04
2022-08-10T04:18:03.772Z,24.93
2022-08-10T04:20:41.516Z,24.89
2022-08-10T04:23:12.992Z,24.91
2022-08-10T04:25:41.237Z,25.03
2022-08-10T04:28:09.719Z,25.52
2022-08-10T04:30:38.810Z,25.54
2022-08-10T04:33:08.614Z,25.64
2022-08-10T04:35:37.848Z,25.63
2022-08-10T04:38:06.270Z,25.40
2022-08-10T04:40:33.750Z,25.42
2022-08-10T04:43:12.642Z,25.39
2022-08-10T04:45:47.319Z,25.51
2022-08-10T04:48:42.056Z,25.57
2022-08-10T04:51:06.806Z,25.67
2022-08-10T04:54:04.631Z,25.92
2022-08-10T04:56:31.778Z,25.91
2022-08-10T04:59:00.885Z,26.31
2022-08-10T05:02:12.168Z,26.16
2022-08-10T05:04:34.789Z,26.01
2022-08-10T05:07:10.504Z,26.13
2022-08-10T05:10:02.358Z,26.34
2022-08-10T05:12:29.531Z,26.76
2022-08-10T05:14:56.945Z,27.00
2022-08-10T05:17:24.862Z,26.71
2022-08-10T05:20:03.757Z,26.60
2022-08-10T05:22:39.461Z,26.48
2022-08-10T05:25:12.751Z,26.55
2022-08-10T05:27:40.990Z,26.59
2022-08-10T05:30:10.533Z,26.60
2022-08-10T05:32:56.253Z,26.77
2022-08-10T05:35:26.182Z,26.97
2022-08-10T05:38:09.461Z,27.02
2022-08-10T05:40:46.693Z,27.29
2022-08-10T05:43:21.158Z,27.19
2022-08-10T05:46:18.284Z,27.20
2022-08-10T05:48:42.083Z,27.25
2022-08-10T05:51:26.741Z,27.37
2022-08-10T05:54:03.408Z,27.50
2022-08-10T05:56:53.850Z,27.58
2022-08-10T06:00:09.894Z,27.74
2022-08-10T06:02:33.115Z,27.86
2022-08-10T06:05:07.254Z,28.25
2022-08-10T06:07:39.180Z,28.33
2022-08-10T06:10:10.202Z,28.56
2022-08-10T06:12:54.835Z,28.41
2022-08-10T06:15:51.691Z,28.42
2022-08-10T06:18:19.201Z,28.53
2022-08-10T06:20:47.620Z,28.90
2022-08-10T06:23:15.155Z,28.98
2022-08-10T06:26:11.889Z,29.40
2022-08-10T06:28:34.193Z,29.21
2022-08-10T06:31:03.453Z,29.25
2022-08-10T06:33:34.173Z,29.22
2022-08-10T06:36:03.765Z,29.29
2022-08-10T06:38:34.161Z,29.47
2022-08-10T06:41:06.561Z,29.39
2022-08-10T06:43:35.987Z,29.62
2022-08-10T06:46:09.360Z,29.64
2022-08-10T06:48:46.548Z,29.91
2022-08-10T06:51:18.218Z,30.07
2022-08-10T06:53:53.825Z,30.40
2022-08-10T06:56:36.175Z,30.26
2022-08-10T06:59:21.266Z,30.24
2022-08-10T07:01:54.003Z,30.42
2022-08-10T07:04:44.680Z,30.74
2022-08-10T07:07:18.872Z,31.01
2022-08-10T07:09:48.386Z,31.11
2022-08-10T07:12:16.532Z,31.15
2022-08-10T07:14:47.057Z,31.15
2022-08-10T07:17:17.890Z,31.37
2022-08-10T07:19:50.247Z,31.02
2022-08-10T07:23:01.619Z,31.16
2022-08-10T07:25:13.474Z,31.20
2022-08-10T07:27:59.525Z,31.41
2022-08-10T07:30:31.869Z,31.41
2022-08-10T07:33:01.929Z,31.33
2022-08-10T07:35:41.912Z,31.59
2022-08-10T07:38:24.119Z,31.84
2022-08-10T07:40:53.534Z,31.81
2022-08-10T07:43:24.476Z,31.99
2022-08-10T07:45:52.025Z,32.38
2022-08-10T07:48:31.776Z,32.52
2022-08-10T07:51:02.109Z,32.58
2022-08-10T07:53:34.323Z,32.49
2022-08-10T07:56:20.984Z,32.15
2022-08-10T07:58:57.878Z,32.07
2022-08-10T08:01:33.079Z,31.56
2022-08-10T08:04:10.599Z,31.47
2022-08-10T08:06:42.779Z,31.57
2022-08-10T08:09:11.537Z,31.94
2022-08-10T08:11:42.074Z,31.82
2022-08-10T08:14:12.222Z,31.85
2022-08-10T08:16:43.978Z,32.02
2022-08-10T08:19:37.708Z,32.10
2022-08-10T08:24:07.805Z,32.40
2022-08-10T08:24:52.496Z,32.50
2022-08-10T08:27:20.532Z,32.38
2022-08-10T08:29:49.997Z,32.43
2022-08-10T08:32:22.388Z,32.87
2022-08-10T08:34:54.648Z,33.12
2022-08-10T08:38:29.706Z,33.43
2022-08-10T08:40:16.772Z,33.33
2022-08-10T08:43:03.379Z,33.36
2022-08-10T08:46:01.549Z,33.21
2022-08-10T08:48:51.391Z,33.09
2022-08-10T08:52:09.324Z,33.27
2022-08-10T08:54:55.479Z,33.55
2022-08-10T08:57:55.780Z,33.68
2022-08-10T09:00:29.075Z,33.34
2022-08-10T09:03:05.395Z,33.54
2022-08-10T09:05:58.681Z,33.20
2022-08-10T09:09:05.211Z,33.30
2022-08-10T09:12:06.590Z,33.77
2022-08-10T09:14:54.868Z,33.70
2022-08-10T09:17:33.199Z,34.15
2022-08-10T09:20:10.404Z,34.41
2022-08-10T09:22:57.249Z,34.27
2022-08-10T09:25:32.972Z,34.57
2022-08-10T09:28:17.229Z,34.58
2022-08-10T09:31:18.668Z,34.36
2022-08-10T09:36:24.250Z,34.15
2022-08-10T09:36:51.778Z,33.92
2022-08-10T09:40:06.937Z,33.16
2022-08-10T09:43:25.670Z,33.46
2022-08-10T09:45:57.386Z,33.07
2022-08-10T09:48:46.248Z,32.85
2022-08-10T09:51:46.633Z,32.89
2022-08-10T09:54:36.664Z,33.35
2022-08-10T09:57:44.906Z,33.33
2022-08-10T10:00:17.114Z,32.89
2022-08-10T10:03:04.325Z,32.86
2022-08-10T10:05:51.865Z,33.40
2022-08-10T10:08:25.752Z,33.81
2022-08-10T10:11:17.302Z,34.33
2022-08-10T10:14:03.698Z,34.15
2022-08-10T10:17:01.452Z,34.34
2022-08-10T10:20:08.022Z,34.45
2022-08-10T10:23:03.149Z,33.85
2022-08-10T10:25:50.303Z,33.41
2022-08-10T10:32:10.144Z,33.36
2022-08-10T10:35:21.613Z,33.18
2022-08-10T10:38:01.128Z,32.63
2022-08-10T10:40:42.496Z,32.70
2022-08-10T10:43:48.751Z,32.69
2022-08-10T10:46:57.214Z,32.28
2022-08-10T10:49:42.852Z,32.31
2022-08-10T10:52:37.909Z,32.47
2022-08-10T10:55:23.713Z,31.72
2022-08-10T10:58:12.060Z,30.62
2022-08-10T11:01:03.166Z,29.76
2022-08-10T11:03:49.112Z,29.50
2022-08-10T11:38:30.168Z,26.58
2022-08-10T11:42:09.983Z,26.11
2022-08-10T11:44:09.591Z,26.00
2022-08-10T11:46:46.991Z,26.03
2022-08-10T11:49:24.498Z,26.14
2022-08-10T11:52:05.037Z,26.03
2022-08-10T11:54:50.944Z,26.30
2022-08-10T11:57:19.722Z,26.31
2022-08-10T11:59:59.146Z,26.68
2022-08-10T12:02:50.341Z,27.27
2022-08-10T12:05:52.580Z,28.01
2022-08-10T12:10:07.221Z,27.97
2022-08-10T12:11:09.474Z,27.96
2022-08-10T12:14:10.657Z,27.94
2022-08-10T12:16:43.132Z,28.70
2022-08-10T12:19:21.262Z,29.62
2022-08-10T12:21:56.830Z,29.96
2022-08-10T12:24:38.210Z,30.55
2022-08-10T12:27:16.745Z,30.88
2022-08-10T12:29:50.574Z,31.54
2022-08-10T12:32:51.941Z,31.88
2022-08-10T12:36:01.718Z,32.51
2022-08-10T12:38:47.067Z,33.00
2022-08-10T12:41:43.951Z,33.48
2022-08-10T12:44:41.659Z,33.47
2022-08-10T12:47:39.413Z,33.72
2022-08-10T12:50:42.895Z,33.85
2022-08-10T12:53:41.439Z,34.18
2022-08-10T12:56:08.938Z,34.33
2022-08-10T12:58:59.482Z,34.65
2022-08-10T13:02:09.462Z,34.86
2022-08-10T13:04:36.160Z,35.09
2022-08-10T13:07:06.338Z,35.19
2022-08-10T13:09:34.615Z,35.40
2022-08-10T13:12:36.638Z,35.52
2022-08-10T13:15:45.919Z,35.75
2022-08-10T13:18:18.634Z,35.57
2022-08-10T13:20:55.373Z,35.76
2022-08-10T13:23:29.686Z,35.85
2022-08-10T13:25:59.910Z,35.65
2022-08-10T13:28:45.896Z,35.62
2022-08-10T13:31:18.319Z,35.82
2022-08-10T13:34:41.190Z,36.29
2022-08-10T13:36:42.042Z,36.54
2022-08-10T13:39:10.986Z,36.88
2022-08-10T13:41:42.990Z,37.20
2022-08-10T13:44:13.383Z,36.98
2022-08-10T13:46:48.286Z,36.96
2022-08-10T13:49:21.734Z,37.30
2022-08-10T13:51:57.393Z,37.65
2022-08-10T13:54:29.561Z,37.67
2022-08-10T13:56:58.382Z,37.43
2022-08-10T14:00:37.525Z,37.82
2022-08-10T14:02:25.074Z,37.41
2022-08-10T14:04:55.260Z,36.93
2022-08-10T14:07:24.260Z,36.40
2022-08-10T14:09:53.717Z,36.77
2022-08-10T14:12:32.264Z,36.75
2022-08-10T14:15:04.994Z,35.32
2022-08-10T14:17:34.310Z,34.82
2022-08-10T14:20:13.339Z,34.42
2022-08-10T14:22:42.405Z,34.14
2022-08-10T14:25:31.554Z,33.50
2022-08-10T14:28:02.534Z,33.07
2022-08-10T14:30:33.536Z,32.74
2022-08-10T14:33:04.833Z,32.68
2022-08-10T14:36:21.178Z,32.38
2022-08-10T14:38:31.107Z,32.42
2022-08-10T14:41:04.623Z,32.36
2022-08-10T14:43:39.871Z,32.24
2022-08-10T14:46:20.263Z,32.22
2022-08-10T14:48:52.297Z,32.24
2022-08-10T14:51:28.252Z,32.01
2022-08-10T14:54:15.918Z,31.95
2022-08-10T14:56:49.077Z,31.88
2022-08-10T14:59:18.611Z,31.93
2022-08-10T15:02:00.668Z,31.59
2022-08-10T15:04:38.059Z,31.56
2022-08-10T15:07:29.727Z,31.51
2022-08-10T15:10:00.765Z,31.57
2022-08-10T15:12:36.063Z,31.56
2022-08-10T15:15:06.629Z,31.74
2022-08-10T15:17:38.092Z,31.74
2022-08-10T15:20:20.625Z,31.58
2022-08-10T15:22:55.616Z,31.54
2022-08-10T15:25:26.372Z,31.48
2022-08-10T15:28:06.411Z,31.28
2022-08-10T15:30:42.587Z,31.27
2022-08-10T15:34:04.429Z,31.14
2022-08-10T15:37:36.979Z,30.97
2022-08-10T15:40:24.051Z,30.96
2022-08-10T15:42:49.159Z,30.80
2022-08-10T15:45:18.029Z,30.59
2022-08-10T15:48:01.873Z,30.68
2022-08-10T15:50:44.250Z,30.59
2022-08-10T15:53:15.896Z,30.48
2022-08-10T15:55:46.338Z,30.31
2022-08-10T15:58:39.460Z,30.24
2022-08-10T16:02:12.777Z,30.22
2022-08-10T16:04:09.101Z,30.21
2022-08-10T16:06:42.807Z,29.97
2022-08-10T16:10:23.981Z,29.73
2022-08-10T16:12:14.345Z,29.94
2022-08-10T16:14:48.014Z,29.83
2022-08-10T16:17:16.853Z,29.84
2022-08-10T16:20:04.652Z,29.79
2022-08-10T16:22:37.138Z,29.94
2022-08-10T16:25:14.652Z,29.78
2022-08-10T16:27:44.562Z,29.64
2022-08-10T16:30:12.971Z,29.51
2022-08-10T16:32:41.679Z,29.37
2022-08-10T16:35:15.996Z,29.39
2022-08-10T16:37:58.736Z,29.36
2022-08-10T16:40:29.548Z,29.33
2022-08-10T16:42:59.252Z,29.19
2022-08-10T16:45:40.341Z,29.31
2022-08-10T16:48:09.722Z,29.18
2022-08-10T16:50:45.378Z,29.18
2022-08-10T16:53:18.930Z,29.08
2022-08-10T16:55:57.600Z,28.89
2022-08-10T16:58:34.431Z,28.93
2022-08-10T17:01:11.073Z,28.85
2022-08-10T17:04:07.282Z,28.86
2022-08-10T17:06:55.834Z,28.97
2022-08-10T17:09:27.961Z,28.81
2022-08-10T17:11:58.278Z,28.82
2022-08-10T17:14:28.931Z,28.70
2022-08-10T17:17:08.679Z,28.69
2022-08-10T17:19:40.805Z,28.77
2022-08-10T17:22:14.492Z,28.74
2022-08-10T17:24:52.808Z,28.66
2022-08-10T17:28:04.669Z,28.50
2022-08-10T17:30:15.895Z,28.47
2022-08-10T17:32:59.540Z,28.55
2022-08-10T17:35:36.705Z,28.46
2022-08-10T17:38:26.450Z,28.51
2022-08-10T17:41:03.750Z,28.48
2022-08-10T17:44:01.346Z,28.22
2022-08-10T17:46:26.093Z,28.21
2022-08-10T17:48:55.416Z,28.13
2022-08-10T17:51:28.675Z,28.09
2022-08-10T17:54:00.195Z,27.92
2022-08-10T17:56:31.862Z,28.09
2022-08-10T17:59:02.921Z,28.15
2022-08-10T18:01:40.919Z,28.17
2022-08-10T18:04:25.616Z,28.05
2022-08-10T18:06:55.195Z,28.07
2022-08-10T18:09:54.456Z,28.63
2022-08-10T18:12:38.650Z,28.71
2022-08-10T18:15:13.368Z,28.16
2022-08-10T18:17:45.311Z,27.83
2022-08-10T18:20:14.888Z,27.77
2022-08-10T18:22:48.563Z,28.01
2022-08-10T18:25:33.956Z,27.83
2022-08-10T18:28:05.108Z,27.61
2022-08-10T18:30:36.647Z,27.54
2022-08-10T18:33:09.056Z,27.51
2022-08-10T18:35:39.161Z,27.49
2022-08-10T18:38:08.177Z,27.51
2022-08-10T18:40:38.515Z,27.26
2022-08-10T18:44:05.051Z,26.86
2022-08-10T18:46:02.684Z,27.08
2022-08-10T18:48:42.730Z,27.18
2022-08-10T18:51:12.650Z,26.87
2022-08-10T18:53:51.555Z,26.40
2022-08-10T18:56:24.373Z,26.01
2022-08-10T18:59:07.860Z,25.86
2022-08-10T19:02:05.818Z,25.68
2022-08-10T19:04:51.855Z,25.63
2022-08-10T19:07:44.380Z,25.93
2022-08-10T19:10:17.711Z,25.99
2022-08-10T19:12:47.733Z,26.14
2022-08-10T19:15:37.761Z,25.99
2022-08-10T19:18:20.899Z,25.91
2022-08-10T19:21:16.190Z,25.88
2022-08-10T19:23:58.713Z,26.06
2022-08-10T19:26:47.961Z,25.66
2022-08-10T19:30:00.939Z,25.90
2022-08-10T19:32:44.800Z,26.19
2022-08-10T19:36:04.459Z,26.06
2022-08-10T19:38:55.434Z,25.85
2022-08-10T19:41:44.225Z,25.98
2022-08-10T19:44:30.899Z,25.75
2022-08-10T19:47:07.404Z,25.48
2022-08-10T19:49:43.900Z,25.66
2022-08-10T19:52:59.783Z,25.90
2022-08-10T19:55:31.791Z,25.86
2022-08-10T19:58:06.300Z,26.25
2022-08-10T20:01:06.908Z,25.62
2022-08-10T20:03:56.202Z,25.57
2022-08-10T20:06:28.559Z,25.57
2022-08-10T20:10:59.134Z,25.64
2022-08-10T20:13:43.537Z,25.50
2022-08-10T20:16:19.261Z,25.62
2022-08-10T20:19:14.775Z,25.98
2022-08-10T20:21:56.974Z,25.92
2022-08-10T20:24:49.257Z,26.12
2022-08-10T20:27:59.251Z,25.79
2022-08-10T20:30:27.912Z,25.47
2022-08-10T20:33:09.310Z,25.74
2022-08-10T20:36:05.960Z,26.04
2022-08-10T20:38:34.835Z,25.60
2022-08-10T20:41:11.274Z,25.60
2022-08-10T20:43:47.831Z,25.62
2022-08-10T20:46:36.251Z,25.50
2022-08-10T20:49:44.513Z,25.45
2022-08-10T20:52:13.835Z,25.43
2022-08-10T20:54:47.720Z,25.35
2022-08-10T20:57:55.647Z,25.50
2022-08-10T21:00:23.043Z,25.58
2022-08-10T21:03:51.591Z,25.62
2022-08-10T21:06:43.392Z,25.63
2022-08-10T21:09:23.428Z,25.70
2022-08-10T21:11:53.661Z,25.64
2022-08-10T21:14:35.636Z,25.60
2022-08-10T21:17:16.856Z,25.64
2022-08-10T21:20:09.581Z,25.52
2022-08-10T21:22:44.996Z,25.57
2022-08-10T21:25:20.064Z,25.50
2022-08-10T21:28:09.731Z,25.38
2022-08-10T21:30:45.348Z,25.55
2022-08-10T21:33:33.358Z,25.60
2022-08-10T21:36:25.224Z,25.24
2022-08-10T21:39:13.365Z,25.57
2022-08-10T21:45:59.795Z,25.34
2022-08-10T21:48:57.694Z,25.42
2022-08-10T21:52:01.943Z,25.51
2022-08-10T21:55:09.637Z,25.39
2022-08-10T21:58:16.887Z,25.52
2022-08-10T22:01:18.051Z,25.39
2022-08-10T22:04:04.905Z,25.37
2022-08-10T22:06:55.784Z,25.39
2022-08-10T22:09:50.818Z,25.45
2022-08-10T22:12:39.654Z,25.48
2022-08-10T22:16:03.287Z,25.71
2022-08-10T22:18:53.891Z,25.63
2022-08-10T22:21:59.980Z,25.47
2022-08-10T22:25:16.802Z,25.43
2022-08-10T22:28:03.684Z,25.56
2022-08-10T22:31:24.380Z,25.58
2022-08-10T22:31:25.113Z,25.46
2022-08-10T22:34:33.125Z,25.39
2022-08-10T22:37:36.997Z,25.33
2022-08-10T22:40:36.927Z,25.37
2022-08-10T22:43:35.414Z,25.37
2022-08-10T22:46:31.488Z,25.42
2022-08-10T22:49:02.082Z,25.47
2022-08-10T22:51:47.521Z,25.45
2022-08-10T22:54:42.457Z,25.38
2022-08-10T22:57:35.646Z,25.36
2022-08-10T23:00:28.729Z,25.29
2022-08-10T23:03:07.664Z,25.38
2022-08-10T23:05:41.629Z,25.45
2022-08-10T23:08:29.985Z,25.37
2022-08-10T23:11:03.728Z,25.45
2022-08-10T23:13:36.863Z,25.44
2022-08-10T23:16:43.579Z,25.66
2022-08-10T23:19:27.644Z,25.33
2022-08-10T23:22:11.576Z,25.08
2022-08-10T23:24:45.257Z,25.00
2022-08-10T23:27:38.502Z,25.04
2022-08-10T23:30:10.458Z,24.95
2022-08-10T23:32:48.183Z,24.85
2022-08-10T23:36:30.314Z,24.82
2022-08-10T23:38:07.917Z,24.84
2022-08-10T23:40:36.446Z,24.81
2022-08-10T23:43:06.545Z,24.73
2022-08-10T23:45:53.261Z,24.82
2022-08-10T23:48:29.709Z,24.72
2022-08-10T23:51:01.298Z,24.95
2022-08-10T23:53:32.435Z,24.61
2022-08-10T23:56:08.551Z,24.61
2022-08-10T23:58:40.653Z,24.65
